sensor_id;sensor_type;location;lat;lon;timestamp;P1;durP1;ratioP1;P2;durP2;ratioP2
7783;SDS011;19359;51.402;6.778;2023-07-29T00:02:23;676.92;;;363.33;;
7783;SDS011;19359;51.402;6.778;2023-07-29T00:04:50;675.10;;;357.00;;
7783;SDS011;19359;51.402;6.778;2023-07-29T00:07:18;680.85;;;362.63;;
7783;SDS011;19359;51.402;6.778;2023-07-29T00:09:46;676.35;;;354.83;;
7783;SDS011;19359;51.402;6.778;2023-07-29T00:12:13;675.70;;;357.88;;
7783;SDS011;19359;51.402;6.778;2023-07-29T00:14:40;678.08;;;358.40;;
7783;SDS011;19359;51.402;6.778;2023-07-29T00:17:07;676.30;;;350.02;;
7783;SDS011;19359;51.402;6.778;2023-07-29T00:19:34;675.47;;;361.25;;
7783;SDS011;19359;51.402;6.778;2023-07-29T00:22:01;674.42;;;354.15;;
7783;SDS011;19359;51.402;6.778;2023-07-29T00:24:30;675.55;;;353.83;;
7783;SDS011;19359;51.402;6.778;2023-07-29T00:26:57;670.42;;;346.23;;
7783;SDS011;19359;51.402;6.778;2023-07-29T00:29:24;675.20;;;347.77;;
7783;SDS011;19359;51.402;6.778;2023-07-29T00:31:51;674.67;;;352.92;;
7783;SDS011;19359;51.402;6.778;2023-07-29T00:34:18;673.25;;;351.23;;
7783;SDS011;19359;51.402;6.778;2023-07-29T00:36:45;676.13;;;340.30;;
7783;SDS011;19359;51.402;6.778;2023-07-29T00:39:12;670.33;;;344.98;;
7783;SDS011;19359;51.402;6.778;2023-07-29T00:41:41;663.78;;;332.63;;
7783;SDS011;19359;51.402;6.778;2023-07-29T00:44:08;665.08;;;341.60;;
7783;SDS011;19359;51.402;6.778;2023-07-29T00:46:35;669.13;;;348.45;;
7783;SDS011;19359;51.402;6.778;2023-07-29T00:49:02;666.22;;;348.60;;
7783;SDS011;19359;51.402;6.778;2023-07-29T00:51:30;667.72;;;344.13;;
7783;SDS011;19359;51.402;6.778;2023-07-29T00:53:57;669.33;;;353.25;;
7783;SDS011;19359;51.402;6.778;2023-07-29T00:56:24;669.35;;;360.27;;
7783;SDS011;19359;51.402;6.778;2023-07-29T00:58:52;671.55;;;363.30;;
7783;SDS011;19359;51.402;6.778;2023-07-29T01:01:23;669.35;;;355.48;;
7783;SDS011;19359;51.402;6.778;2023-07-29T01:03:51;667.90;;;351.08;;
7783;SDS011;19359;51.402;6.778;2023-07-29T01:06:19;668.45;;;361.60;;
7783;SDS011;19359;51.402;6.778;2023-07-29T01:08:50;665.20;;;350.83;;
7783;SDS011;19359;51.402;6.778;2023-07-29T01:11:22;673.08;;;363.52;;
7783;SDS011;19359;51.402;6.778;2023-07-29T01:13:55;669.33;;;360.02;;
7783;SDS011;19359;51.402;6.778;2023-07-29T01:16:25;667.75;;;365.90;;
7783;SDS011;19359;51.402;6.778;2023-07-29T01:18:56;671.40;;;357.25;;
7783;SDS011;19359;51.402;6.778;2023-07-29T01:21:24;676.58;;;372.85;;
7783;SDS011;19359;51.402;6.778;2023-07-29T01:23:56;671.60;;;371.63;;
7783;SDS011;19359;51.402;6.778;2023-07-29T01:26:25;665.78;;;354.13;;
7783;SDS011;19359;51.402;6.778;2023-07-29T01:28:54;686.97;;;388.48;;
7783;SDS011;19359;51.402;6.778;2023-07-29T01:31:23;672.20;;;360.90;;
7783;SDS011;19359;51.402;6.778;2023-07-29T01:33:56;671.38;;;363.05;;
7783;SDS011;19359;51.402;6.778;2023-07-29T01:36:25;671.95;;;360.73;;
7783;SDS011;19359;51.402;6.778;2023-07-29T01:38:56;669.05;;;367.20;;
7783;SDS011;19359;51.402;6.778;2023-07-29T01:41:24;671.47;;;368.00;;
7783;SDS011;19359;51.402;6.778;2023-07-29T01:43:51;666.25;;;359.73;;
7783;SDS011;19359;51.402;6.778;2023-07-29T01:46:19;673.38;;;369.20;;
7783;SDS011;19359;51.402;6.778;2023-07-29T01:48:47;666.80;;;361.25;;
7783;SDS011;19359;51.402;6.778;2023-07-29T01:51:14;667.20;;;354.70;;
7783;SDS011;19359;51.402;6.778;2023-07-29T01:53:41;663.60;;;353.88;;
7783;SDS011;19359;51.402;6.778;2023-07-29T01:56:09;666.80;;;349.85;;
7783;SDS011;19359;51.402;6.778;2023-07-29T01:58:36;665.63;;;352.88;;
7783;SDS011;19359;51.402;6.778;2023-07-29T02:01:03;665.35;;;365.77;;
7783;SDS011;19359;51.402;6.778;2023-07-29T02:03:30;666.63;;;350.73;;
7783;SDS011;19359;51.402;6.778;2023-07-29T02:05:58;667.28;;;368.08;;
7783;SDS011;19359;51.402;6.778;2023-07-29T02:08:25;664.90;;;356.63;;
7783;SDS011;19359;51.402;6.778;2023-07-29T02:10:52;667.33;;;363.10;;
7783;SDS011;19359;51.402;6.778;2023-07-29T02:13:20;668.92;;;366.83;;
7783;SDS011;19359;51.402;6.778;2023-07-29T02:15:47;671.65;;;367.00;;
7783;SDS011;19359;51.402;6.778;2023-07-29T02:18:14;671.60;;;374.55;;
7783;SDS011;19359;51.402;6.778;2023-07-29T02:20:41;673.22;;;380.20;;
7783;SDS011;19359;51.402;6.778;2023-07-29T02:23:14;672.35;;;376.27;;
7783;SDS011;19359;51.402;6.778;2023-07-29T02:25:42;675.13;;;374.60;;
7783;SDS011;19359;51.402;6.778;2023-07-29T02:28:09;677.05;;;380.48;;
7783;SDS011;19359;51.402;6.778;2023-07-29T02:30:40;678.80;;;384.00;;
7783;SDS011;19359;51.402;6.778;2023-07-29T02:33:09;677.83;;;383.20;;
7783;SDS011;19359;51.402;6.778;2023-07-29T02:35:36;673.80;;;379.48;;
7783;SDS011;19359;51.402;6.778;2023-07-29T02:38:03;677.88;;;373.38;;
7783;SDS011;19359;51.402;6.778;2023-07-29T02:40:30;671.15;;;373.63;;
7783;SDS011;19359;51.402;6.778;2023-07-29T02:42:57;672.38;;;368.65;;
7783;SDS011;19359;51.402;6.778;2023-07-29T02:45:24;674.60;;;383.48;;
7783;SDS011;19359;51.402;6.778;2023-07-29T02:47:52;681.90;;;393.65;;
7783;SDS011;19359;51.402;6.778;2023-07-29T02:50:20;674.95;;;371.35;;
7783;SDS011;19359;51.402;6.778;2023-07-29T02:52:47;674.65;;;378.83;;
7783;SDS011;19359;51.402;6.778;2023-07-29T02:55:14;672.80;;;370.10;;
7783;SDS011;19359;51.402;6.778;2023-07-29T02:57:41;672.97;;;373.15;;
7783;SDS011;19359;51.402;6.778;2023-07-29T03:00:09;671.67;;;365.02;;
7783;SDS011;19359;51.402;6.778;2023-07-29T03:02:36;673.25;;;370.60;;
7783;SDS011;19359;51.402;6.778;2023-07-29T03:05:05;667.63;;;360.23;;
7783;SDS011;19359;51.402;6.778;2023-07-29T03:07:32;671.22;;;378.98;;
7783;SDS011;19359;51.402;6.778;2023-07-29T03:09:59;675.20;;;376.52;;
7783;SDS011;19359;51.402;6.778;2023-07-29T03:12:26;673.45;;;368.75;;
7783;SDS011;19359;51.402;6.778;2023-07-29T03:14:54;671.30;;;370.40;;
7783;SDS011;19359;51.402;6.778;2023-07-29T03:17:21;682.55;;;390.80;;
7783;SDS011;19359;51.402;6.778;2023-07-29T03:19:48;673.95;;;374.23;;
7783;SDS011;19359;51.402;6.778;2023-07-29T03:22:17;674.88;;;369.35;;
7783;SDS011;19359;51.402;6.778;2023-07-29T03:24:44;672.90;;;370.52;;
7783;SDS011;19359;51.402;6.778;2023-07-29T03:27:11;675.47;;;374.95;;
7783;SDS011;19359;51.402;6.778;2023-07-29T03:29:40;677.60;;;380.90;;
7783;SDS011;19359;51.402;6.778;2023-07-29T03:32:07;676.28;;;375.77;;
7783;SDS011;19359;51.402;6.778;2023-07-29T03:34:34;672.65;;;368.75;;
7783;SDS011;19359;51.402;6.778;2023-07-29T03:37:01;671.80;;;363.95;;
7783;SDS011;19359;51.402;6.778;2023-07-29T03:39:30;677.90;;;382.52;;
7783;SDS011;19359;51.402;6.778;2023-07-29T03:41:57;679.00;;;371.33;;
7783;SDS011;19359;51.402;6.778;2023-07-29T03:44:24;679.30;;;389.00;;
7783;SDS011;19359;51.402;6.778;2023-07-29T03:46:51;672.42;;;368.77;;
7783;SDS011;19359;51.402;6.778;2023-07-29T03:49:18;678.55;;;371.38;;
7783;SDS011;19359;51.402;6.778;2023-07-29T03:51:45;676.10;;;369.35;;
7783;SDS011;19359;51.402;6.778;2023-07-29T03:54:13;676.83;;;372.35;;
7783;SDS011;19359;51.402;6.778;2023-07-29T03:56:41;674.08;;;375.63;;
7783;SDS011;19359;51.402;6.778;2023-07-29T03:59:08;678.03;;;382.13;;
7783;SDS011;19359;51.402;6.778;2023-07-29T04:01:35;675.15;;;367.33;;
7783;SDS011;19359;51.402;6.778;2023-07-29T04:04:02;680.42;;;377.08;;
7783;SDS011;19359;51.402;6.778;2023-07-29T04:06:30;675.15;;;372.92;;
7783;SDS011;19359;51.402;6.778;2023-07-29T04:08:57;681.20;;;393.42;;
7783;SDS011;19359;51.402;6.778;2023-07-29T04:11:24;677.10;;;378.77;;
7783;SDS011;19359;51.402;6.778;2023-07-29T04:13:53;685.40;;;397.33;;
7783;SDS011;19359;51.402;6.778;2023-07-29T04:16:20;677.50;;;368.55;;
7783;SDS011;19359;51.402;6.778;2023-07-29T04:18:47;680.20;;;380.33;;
7783;SDS011;19359;51.402;6.778;2023-07-29T04:21:14;677.25;;;365.90;;
7783;SDS011;19359;51.402;6.778;2023-07-29T04:23:41;676.30;;;370.77;;
7783;SDS011;19359;51.402;6.778;2023-07-29T04:26:08;675.33;;;362.52;;
7783;SDS011;19359;51.402;6.778;2023-07-29T04:28:35;674.80;;;359.38;;
7783;SDS011;19359;51.402;6.778;2023-07-29T04:31:04;676.00;;;362.70;;
7783;SDS011;19359;51.402;6.778;2023-07-29T04:33:31;672.80;;;354.48;;
7783;SDS011;19359;51.402;6.778;2023-07-29T04:35:58;674.53;;;357.10;;
7783;SDS011;19359;51.402;6.778;2023-07-29T04:38:30;676.90;;;352.67;;
7783;SDS011;19359;51.402;6.778;2023-07-29T04:40:57;671.33;;;346.10;;
7783;SDS011;19359;51.402;6.778;2023-07-29T04:43:26;676.83;;;355.52;;
7783;SDS011;19359;51.402;6.778;2023-07-29T04:45:54;673.70;;;354.08;;
7783;SDS011;19359;51.402;6.778;2023-07-29T04:48:22;675.25;;;358.10;;
7783;SDS011;19359;51.402;6.778;2023-07-29T04:50:49;677.60;;;363.80;;
7783;SDS011;19359;51.402;6.778;2023-07-29T04:53:16;672.90;;;350.75;;
7783;SDS011;19359;51.402;6.778;2023-07-29T04:55:43;679.92;;;352.60;;
7783;SDS011;19359;51.402;6.778;2023-07-29T04:58:11;678.28;;;346.40;;
7783;SDS011;19359;51.402;6.778;2023-07-29T05:00:38;677.97;;;349.13;;
7783;SDS011;19359;51.402;6.778;2023-07-29T05:03:05;676.08;;;354.70;;
7783;SDS011;19359;51.402;6.778;2023-07-29T05:05:33;677.00;;;340.05;;
7783;SDS011;19359;51.402;6.778;2023-07-29T05:08:00;675.30;;;353.83;;
7783;SDS011;19359;51.402;6.778;2023-07-29T05:10:27;676.97;;;351.42;;
7783;SDS011;19359;51.402;6.778;2023-07-29T05:12:54;676.72;;;352.23;;
7783;SDS011;19359;51.402;6.778;2023-07-29T05:15:22;679.55;;;356.75;;
7783;SDS011;19359;51.402;6.778;2023-07-29T05:17:49;686.78;;;359.23;;
7783;SDS011;19359;51.402;6.778;2023-07-29T05:20:16;684.33;;;355.85;;
7783;SDS011;19359;51.402;6.778;2023-07-29T05:22:44;686.97;;;366.08;;
7783;SDS011;19359;51.402;6.778;2023-07-29T05:25:11;686.58;;;366.10;;
7783;SDS011;19359;51.402;6.778;2023-07-29T05:27:38;681.28;;;349.00;;
7783;SDS011;19359;51.402;6.778;2023-07-29T05:30:06;685.13;;;357.42;;
7783;SDS011;19359;51.402;6.778;2023-07-29T05:32:34;691.20;;;354.73;;
7783;SDS011;19359;51.402;6.778;2023-07-29T05:35:01;686.45;;;343.63;;
7783;SDS011;19359;51.402;6.778;2023-07-29T05:37:28;696.10;;;352.20;;
7783;SDS011;19359;51.402;6.778;2023-07-29T05:39:56;691.45;;;356.15;;
7783;SDS011;19359;51.402;6.778;2023-07-29T05:42:24;689.88;;;343.75;;
7783;SDS011;19359;51.402;6.778;2023-07-29T05:44:51;701.10;;;354.48;;
7783;SDS011;19359;51.402;6.778;2023-07-29T05:47:18;702.47;;;356.52;;
7783;SDS011;19359;51.402;6.778;2023-07-29T05:49:45;703.13;;;355.88;;
7783;SDS011;19359;51.402;6.778;2023-07-29T05:52:12;705.25;;;363.05;;
7783;SDS011;19359;51.402;6.778;2023-07-29T05:54:39;699.13;;;349.10;;
7783;SDS011;19359;51.402;6.778;2023-07-29T05:57:09;709.05;;;361.23;;
7783;SDS011;19359;51.402;6.778;2023-07-29T05:59:36;704.42;;;358.23;;
7783;SDS011;19359;51.402;6.778;2023-07-29T06:02:03;707.05;;;360.33;;
7783;SDS011;19359;51.402;6.778;2023-07-29T06:04:29;701.00;;;342.88;;
7783;SDS011;19359;51.402;6.778;2023-07-29T06:06:56;704.40;;;356.25;;
7783;SDS011;19359;51.402;6.778;2023-07-29T06:09:23;704.83;;;366.55;;
7783;SDS011;19359;51.402;6.778;2023-07-29T06:11:51;701.03;;;358.90;;
7783;SDS011;19359;51.402;6.778;2023-07-29T06:14:19;699.00;;;358.27;;
7783;SDS011;19359;51.402;6.778;2023-07-29T06:16:46;704.88;;;367.80;;
7783;SDS011;19359;51.402;6.778;2023-07-29T06:19:13;705.83;;;375.17;;
7783;SDS011;19359;51.402;6.778;2023-07-29T06:21:40;711.40;;;378.83;;
7783;SDS011;19359;51.402;6.778;2023-07-29T06:24:08;707.13;;;368.38;;
7783;SDS011;19359;51.402;6.778;2023-07-29T06:26:35;705.03;;;371.17;;
7783;SDS011;19359;51.402;6.778;2023-07-29T06:29:02;711.55;;;371.08;;
7783;SDS011;19359;51.402;6.778;2023-07-29T06:31:30;714.60;;;386.05;;
7783;SDS011;19359;51.402;6.778;2023-07-29T06:33:58;708.72;;;363.52;;
7783;SDS011;19359;51.402;6.778;2023-07-29T06:36:25;709.05;;;364.10;;
7783;SDS011;19359;51.402;6.778;2023-07-29T06:38:52;718.17;;;370.77;;
7783;SDS011;19359;51.402;6.778;2023-07-29T06:41:20;706.97;;;372.77;;
7783;SDS011;19359;51.402;6.778;2023-07-29T06:43:47;708.58;;;370.27;;
7783;SDS011;19359;51.402;6.778;2023-07-29T06:46:14;718.78;;;387.48;;
7783;SDS011;19359;51.402;6.778;2023-07-29T06:48:42;708.63;;;380.88;;
7783;SDS011;19359;51.402;6.778;2023-07-29T06:51:10;712.05;;;380.73;;
7783;SDS011;19359;51.402;6.778;2023-07-29T06:53:37;718.35;;;401.02;;
7783;SDS011;19359;51.402;6.778;2023-07-29T06:56:04;716.50;;;396.73;;
7783;SDS011;19359;51.402;6.778;2023-07-29T06:58:31;719.60;;;399.35;;
7783;SDS011;19359;51.402;6.778;2023-07-29T07:00:59;723.70;;;406.63;;
7783;SDS011;19359;51.402;6.778;2023-07-29T07:03:26;721.50;;;412.65;;
7783;SDS011;19359;51.402;6.778;2023-07-29T07:05:54;719.67;;;403.02;;
7783;SDS011;19359;51.402;6.778;2023-07-29T07:08:21;717.95;;;396.63;;
7783;SDS011;19359;51.402;6.778;2023-07-29T07:10:48;716.10;;;398.75;;
7783;SDS011;19359;51.402;6.778;2023-07-29T07:13:15;738.92;;;430.70;;
7783;SDS011;19359;51.402;6.778;2023-07-29T07:15:42;712.50;;;399.20;;
7783;SDS011;19359;51.402;6.778;2023-07-29T07:18:10;715.97;;;404.15;;
7783;SDS011;19359;51.402;6.778;2023-07-29T07:20:37;724.05;;;414.77;;
7783;SDS011;19359;51.402;6.778;2023-07-29T07:23:05;718.80;;;412.87;;
7783;SDS011;19359;51.402;6.778;2023-07-29T07:25:36;719.30;;;408.07;;
7783;SDS011;19359;51.402;6.778;2023-07-29T07:28:03;720.40;;;412.13;;
7783;SDS011;19359;51.402;6.778;2023-07-29T07:30:30;722.65;;;413.48;;
7783;SDS011;19359;51.402;6.778;2023-07-29T07:32:57;723.20;;;418.80;;
7783;SDS011;19359;51.402;6.778;2023-07-29T07:35:24;723.73;;;421.53;;
7783;SDS011;19359;51.402;6.778;2023-07-29T07:37:51;722.87;;;409.53;;
7783;SDS011;19359;51.402;6.778;2023-07-29T07:40:20;719.80;;;418.77;;
7783;SDS011;19359;51.402;6.778;2023-07-29T07:42:47;721.83;;;410.60;;
7783;SDS011;19359;51.402;6.778;2023-07-29T07:45:14;723.37;;;417.30;;
7783;SDS011;19359;51.402;6.778;2023-07-29T07:47:42;716.33;;;406.50;;
7783;SDS011;19359;51.402;6.778;2023-07-29T07:50:10;719.70;;;421.08;;
7783;SDS011;19359;51.402;6.778;2023-07-29T07:52:37;720.38;;;420.02;;
7783;SDS011;19359;51.402;6.778;2023-07-29T07:55:04;722.83;;;419.63;;
7783;SDS011;19359;51.402;6.778;2023-07-29T07:57:33;723.00;;;423.23;;
7783;SDS011;19359;51.402;6.778;2023-07-29T08:00:00;724.47;;;435.30;;
7783;SDS011;19359;51.402;6.778;2023-07-29T08:02:27;727.00;;;438.13;;
7783;SDS011;19359;51.402;6.778;2023-07-29T08:04:54;727.27;;;430.07;;
7783;SDS011;19359;51.402;6.778;2023-07-29T08:07:21;732.27;;;449.00;;
7783;SDS011;19359;51.402;6.778;2023-07-29T08:09:48;747.77;;;472.17;;
7783;SDS011;19359;51.402;6.778;2023-07-29T08:12:15;736.70;;;458.70;;
7783;SDS011;19359;51.402;6.778;2023-07-29T08:14:43;731.00;;;446.47;;
7783;SDS011;19359;51.402;6.778;2023-07-29T08:17:11;733.38;;;453.33;;
7783;SDS011;19359;51.402;6.778;2023-07-29T08:19:38;741.10;;;477.85;;
7783;SDS011;19359;51.402;6.778;2023-07-29T08:22:05;733.17;;;469.10;;
7783;SDS011;19359;51.402;6.778;2023-07-29T08:24:32;735.97;;;478.73;;
7783;SDS011;19359;51.402;6.778;2023-07-29T08:26:59;736.80;;;480.23;;
7783;SDS011;19359;51.402;6.778;2023-07-29T08:29:26;736.80;;;488.40;;
7783;SDS011;19359;51.402;6.778;2023-07-29T08:31:55;739.22;;;495.83;;
7783;SDS011;19359;51.402;6.778;2023-07-29T08:34:22;739.88;;;489.55;;
7783;SDS011;19359;51.402;6.778;2023-07-29T08:36:49;742.00;;;495.63;;
7783;SDS011;19359;51.402;6.778;2023-07-29T08:39:16;743.38;;;501.42;;
7783;SDS011;19359;51.402;6.778;2023-07-29T08:41:45;743.67;;;505.98;;
7783;SDS011;19359;51.402;6.778;2023-07-29T08:44:18;749.15;;;512.35;;
7783;SDS011;19359;51.402;6.778;2023-07-29T08:46:45;735.90;;;484.52;;
7783;SDS011;19359;51.402;6.778;2023-07-29T08:49:14;751.55;;;513.85;;
7783;SDS011;19359;51.402;6.778;2023-07-29T08:51:44;744.50;;;507.10;;
7783;SDS011;19359;51.402;6.778;2023-07-29T08:54:11;750.35;;;528.63;;
7783;SDS011;19359;51.402;6.778;2023-07-29T08:56:40;746.90;;;526.30;;
7783;SDS011;19359;51.402;6.778;2023-07-29T08:59:07;746.20;;;526.67;;
7783;SDS011;19359;51.402;6.778;2023-07-29T09:01:35;747.65;;;520.20;;
7783;SDS011;19359;51.402;6.778;2023-07-29T09:04:02;747.03;;;524.97;;
7783;SDS011;19359;51.402;6.778;2023-07-29T09:06:31;743.83;;;509.45;;
7783;SDS011;19359;51.402;6.778;2023-07-29T09:08:58;746.58;;;517.58;;
7783;SDS011;19359;51.402;6.778;2023-07-29T09:11:26;745.47;;;523.13;;
7783;SDS011;19359;51.402;6.778;2023-07-29T09:13:53;742.95;;;511.55;;
7783;SDS011;19359;51.402;6.778;2023-07-29T09:16:20;747.07;;;511.73;;
7783;SDS011;19359;51.402;6.778;2023-07-29T09:18:48;746.50;;;516.27;;
7783;SDS011;19359;51.402;6.778;2023-07-29T09:21:15;745.60;;;502.23;;
7783;SDS011;19359;51.402;6.778;2023-07-29T09:23:45;741.83;;;508.83;;
7783;SDS011;19359;51.402;6.778;2023-07-29T09:26:12;751.60;;;512.33;;
7783;SDS011;19359;51.402;6.778;2023-07-29T09:28:39;746.57;;;518.70;;
7783;SDS011;19359;51.402;6.778;2023-07-29T09:31:06;759.63;;;520.67;;
7783;SDS011;19359;51.402;6.778;2023-07-29T09:33:34;748.65;;;503.33;;
7783;SDS011;19359;51.402;6.778;2023-07-29T09:36:02;746.65;;;503.27;;
7783;SDS011;19359;51.402;6.778;2023-07-29T09:38:29;763.50;;;530.38;;
7783;SDS011;19359;51.402;6.778;2023-07-29T09:40:57;746.00;;;494.75;;
7783;SDS011;19359;51.402;6.778;2023-07-29T09:43:25;748.25;;;491.77;;
7783;SDS011;19359;51.402;6.778;2023-07-29T09:45:52;743.42;;;487.75;;
7783;SDS011;19359;51.402;6.778;2023-07-29T09:48:19;743.10;;;494.38;;
7783;SDS011;19359;51.402;6.778;2023-07-29T09:50:49;752.40;;;507.13;;
7783;SDS011;19359;51.402;6.778;2023-07-29T09:53:16;750.88;;;508.38;;
7783;SDS011;19359;51.402;6.778;2023-07-29T09:55:46;758.13;;;517.20;;
7783;SDS011;19359;51.402;6.778;2023-07-29T09:58:14;749.25;;;510.10;;
7783;SDS011;19359;51.402;6.778;2023-07-29T10:00:45;749.75;;;505.73;;
7783;SDS011;19359;51.402;6.778;2023-07-29T10:03:13;751.45;;;523.90;;
7783;SDS011;19359;51.402;6.778;2023-07-29T10:05:41;767.38;;;531.20;;
7783;SDS011;19359;51.402;6.778;2023-07-29T10:08:08;751.25;;;529.08;;
7783;SDS011;19359;51.402;6.778;2023-07-29T10:10:37;785.60;;;579.95;;
7783;SDS011;19359;51.402;6.778;2023-07-29T10:13:05;768.88;;;571.53;;
7783;SDS011;19359;51.402;6.778;2023-07-29T10:15:33;764.22;;;579.60;;
7783;SDS011;19359;51.402;6.778;2023-07-29T10:18:01;773.33;;;595.13;;
7783;SDS011;19359;51.402;6.778;2023-07-29T10:20:29;782.00;;;623.72;;
7783;SDS011;19359;51.402;6.778;2023-07-29T10:22:58;779.97;;;600.60;;
7783;SDS011;19359;51.402;6.778;2023-07-29T10:25:28;784.50;;;593.08;;
7783;SDS011;19359;51.402;6.778;2023-07-29T10:27:56;777.17;;;595.13;;
7783;SDS011;19359;51.402;6.778;2023-07-29T10:30:28;764.83;;;563.13;;
7783;SDS011;19359;51.402;6.778;2023-07-29T10:32:57;764.83;;;561.58;;
7783;SDS011;19359;51.402;6.778;2023-07-29T10:35:24;756.08;;;541.00;;
7783;SDS011;19359;51.402;6.778;2023-07-29T10:37:52;762.55;;;549.53;;
7783;SDS011;19359;51.402;6.778;2023-07-29T10:40:19;760.30;;;556.63;;
7783;SDS011;19359;51.402;6.778;2023-07-29T10:42:59;761.35;;;556.95;;
7783;SDS011;19359;51.402;6.778;2023-07-29T10:45:28;752.65;;;532.70;;
7783;SDS011;19359;51.402;6.778;2023-07-29T10:48:06;770.67;;;569.67;;
7783;SDS011;19359;51.402;6.778;2023-07-29T10:50:33;759.15;;;545.25;;
7783;SDS011;19359;51.402;6.778;2023-07-29T10:53:01;764.45;;;570.10;;
7783;SDS011;19359;51.402;6.778;2023-07-29T10:55:29;763.60;;;563.58;;
7783;SDS011;19359;51.402;6.778;2023-07-29T10:58:06;757.42;;;563.67;;
7783;SDS011;19359;51.402;6.778;2023-07-29T11:00:33;760.65;;;563.85;;
7783;SDS011;19359;51.402;6.778;2023-07-29T11:03:01;764.45;;;576.95;;
7783;SDS011;19359;51.402;6.778;2023-07-29T11:05:42;773.05;;;588.30;;
7783;SDS011;19359;51.402;6.778;2023-07-29T11:08:22;769.60;;;592.05;;
7783;SDS011;19359;51.402;6.778;2023-07-29T11:10:57;775.75;;;600.65;;
7783;SDS011;19359;51.402;6.778;2023-07-29T11:13:25;773.42;;;605.13;;
7783;SDS011;19359;51.402;6.778;2023-07-29T11:15:53;768.72;;;588.95;;
7783;SDS011;19359;51.402;6.778;2023-07-29T11:18:21;758.42;;;571.50;;
7783;SDS011;19359;51.402;6.778;2023-07-29T11:20:49;759.70;;;571.40;;
7783;SDS011;19359;51.402;6.778;2023-07-29T11:23:17;761.63;;;571.63;;
7783;SDS011;19359;51.402;6.778;2023-07-29T11:25:44;753.90;;;552.08;;
7783;SDS011;19359;51.402;6.778;2023-07-29T11:28:11;757.67;;;554.60;;
7783;SDS011;19359;51.402;6.778;2023-07-29T11:30:39;752.88;;;544.92;;
7783;SDS011;19359;51.402;6.778;2023-07-29T11:33:06;758.83;;;561.88;;
7783;SDS011;19359;51.402;6.778;2023-07-29T11:35:33;756.83;;;568.20;;
7783;SDS011;19359;51.402;6.778;2023-07-29T11:38:01;761.30;;;581.92;;
7783;SDS011;19359;51.402;6.778;2023-07-29T11:40:29;759.88;;;573.42;;
7783;SDS011;19359;51.402;6.778;2023-07-29T11:42:56;760.28;;;574.72;;
7783;SDS011;19359;51.402;6.778;2023-07-29T11:45:23;764.15;;;589.40;;
7783;SDS011;19359;51.402;6.778;2023-07-29T11:47:50;769.33;;;614.28;;
7783;SDS011;19359;51.402;6.778;2023-07-29T11:50:17;774.13;;;620.00;;
7783;SDS011;19359;51.402;6.778;2023-07-29T11:52:45;771.75;;;617.10;;
7783;SDS011;19359;51.402;6.778;2023-07-29T11:55:14;769.65;;;621.10;;
7783;SDS011;19359;51.402;6.778;2023-07-29T11:57:43;778.65;;;640.50;;
7783;SDS011;19359;51.402;6.778;2023-07-29T12:00:11;774.75;;;628.50;;
7783;SDS011;19359;51.402;6.778;2023-07-29T12:02:40;768.08;;;612.38;;
7783;SDS011;19359;51.402;6.778;2023-07-29T12:05:09;776.95;;;627.50;;
7783;SDS011;19359;51.402;6.778;2023-07-29T12:07:37;767.30;;;607.40;;
7783;SDS011;19359;51.402;6.778;2023-07-29T12:10:05;767.45;;;606.45;;
7783;SDS011;19359;51.402;6.778;2023-07-29T12:12:35;766.78;;;604.35;;
7783;SDS011;19359;51.402;6.778;2023-07-29T12:15:04;768.92;;;608.15;;
7783;SDS011;19359;51.402;6.778;2023-07-29T12:17:31;766.50;;;604.15;;
7783;SDS011;19359;51.402;6.778;2023-07-29T12:19:58;774.20;;;616.30;;
7783;SDS011;19359;51.402;6.778;2023-07-29T12:22:26;776.53;;;627.38;;
7783;SDS011;19359;51.402;6.778;2023-07-29T12:24:53;772.63;;;618.88;;
7783;SDS011;19359;51.402;6.778;2023-07-29T12:27:21;768.65;;;617.10;;
7783;SDS011;19359;51.402;6.778;2023-07-29T12:29:51;765.08;;;598.95;;
7783;SDS011;19359;51.402;6.778;2023-07-29T12:32:18;768.20;;;603.58;;
7783;SDS011;19359;51.402;6.778;2023-07-29T12:34:45;764.35;;;591.40;;
7783;SDS011;19359;51.402;6.778;2023-07-29T12:37:12;766.90;;;599.80;;
7783;SDS011;19359;51.402;6.778;2023-07-29T12:39:40;768.53;;;593.75;;
7783;SDS011;19359;51.402;6.778;2023-07-29T12:42:07;768.70;;;601.97;;
7783;SDS011;19359;51.402;6.778;2023-07-29T12:44:35;773.15;;;621.53;;
7783;SDS011;19359;51.402;6.778;2023-07-29T12:47:04;775.20;;;634.40;;
7783;SDS011;19359;51.402;6.778;2023-07-29T12:49:31;771.85;;;627.58;;
7783;SDS011;19359;51.402;6.778;2023-07-29T12:51:59;776.53;;;632.13;;
7783;SDS011;19359;51.402;6.778;2023-07-29T12:54:26;776.40;;;644.65;;
7783;SDS011;19359;51.402;6.778;2023-07-29T12:56:53;795.42;;;659.50;;
7783;SDS011;19359;51.402;6.778;2023-07-29T12:59:20;774.08;;;639.97;;
7783;SDS011;19359;51.402;6.778;2023-07-29T13:01:47;774.58;;;636.65;;
7783;SDS011;19359;51.402;6.778;2023-07-29T13:04:16;781.17;;;644.15;;
7783;SDS011;19359;51.402;6.778;2023-07-29T13:06:43;784.03;;;664.35;;
7783;SDS011;19359;51.402;6.778;2023-07-29T13:09:10;779.95;;;655.90;;
7783;SDS011;19359;51.402;6.778;2023-07-29T13:11:37;782.03;;;660.70;;
7783;SDS011;19359;51.402;6.778;2023-07-29T13:14:04;785.95;;;657.67;;
7783;SDS011;19359;51.402;6.778;2023-07-29T13:16:31;784.60;;;664.67;;
7783;SDS011;19359;51.402;6.778;2023-07-29T13:18:58;780.88;;;653.80;;
7783;SDS011;19359;51.402;6.778;2023-07-29T13:21:27;770.83;;;622.42;;
7783;SDS011;19359;51.402;6.778;2023-07-29T13:23:54;768.42;;;609.28;;
7783;SDS011;19359;51.402;6.778;2023-07-29T13:26:21;761.42;;;595.05;;
7783;SDS011;19359;51.402;6.778;2023-07-29T13:28:48;762.08;;;595.58;;
7783;SDS011;19359;51.402;6.778;2023-07-29T13:31:15;761.00;;;588.67;;
7783;SDS011;19359;51.402;6.778;2023-07-29T13:33:42;764.15;;;588.67;;
7783;SDS011;19359;51.402;6.778;2023-07-29T13:36:09;758.50;;;572.40;;
7783;SDS011;19359;51.402;6.778;2023-07-29T13:38:38;756.75;;;576.10;;
7783;SDS011;19359;51.402;6.778;2023-07-29T13:41:05;761.22;;;568.60;;
7783;SDS011;19359;51.402;6.778;2023-07-29T13:43:32;758.85;;;550.90;;
7783;SDS011;19359;51.402;6.778;2023-07-29T13:45:59;758.13;;;558.80;;
7783;SDS011;19359;51.402;6.778;2023-07-29T13:48:26;758.35;;;558.28;;
7783;SDS011;19359;51.402;6.778;2023-07-29T13:50:53;758.25;;;539.28;;
7783;SDS011;19359;51.402;6.778;2023-07-29T13:53:20;754.10;;;529.78;;
7783;SDS011;19359;51.402;6.778;2023-07-29T13:55:49;755.92;;;523.90;;
7783;SDS011;19359;51.402;6.778;2023-07-29T13:58:16;748.33;;;508.23;;
7783;SDS011;19359;51.402;6.778;2023-07-29T14:00:43;744.33;;;503.80;;
7783;SDS011;19359;51.402;6.778;2023-07-29T14:03:10;746.78;;;494.58;;
7783;SDS011;19359;51.402;6.778;2023-07-29T14:05:37;748.22;;;493.48;;
7783;SDS011;19359;51.402;6.778;2023-07-29T14:08:04;749.70;;;495.50;;
7783;SDS011;19359;51.402;6.778;2023-07-29T14:10:31;744.17;;;484.98;;
7783;SDS011;19359;51.402;6.778;2023-07-29T14:13:00;742.83;;;490.08;;